createdAt,value
2022-08-21T00:01:08.352Z,12.78
2022-08-21T00:03:36.387Z,12.76
2022-08-21T00:06:04.872Z,12.77
2022-08-21T00:08:33.108Z,12.71
2022-08-21T00:11:02.886Z,12.66
2022-08-21T00:13:31.025Z,12.74
2022-08-21T00:15:59.147Z,12.81
2022-08-21T00:18:27.721Z,12.73
2022-08-21T00:20:55.777Z,12.65
2022-08-21T00:23:24.528Z,12.49
2022-08-21T00:25:52.572Z,12.55
2022-08-21T00:28:21.930Z,12.51
2022-08-21T00:30:49.949Z,12.41
2022-08-21T00:33:17.976Z,12.45
2022-08-21T00:35:46.252Z,12.39
2022-08-21T00:38:15.421Z,12.50
2022-08-21T00:40:46.741Z,12.66
2022-08-21T00:43:17.797Z,12.72
2022-08-21T00:45:47.352Z,12.63
2022-08-21T00:48:15.713Z,12.62
2022-08-21T00:50:48.562Z,12.63
2022-08-21T00:53:16.994Z,12.49
2022-08-21T00:55:45.782Z,12.54
2022-08-21T00:58:15.529Z,12.46
2022-08-21T01:00:49.511Z,12.47
2022-08-21T01:03:23.767Z,12.53
2022-08-21T01:05:52.646Z,12.55
2022-08-21T01:08:21.859Z,12.62
2022-08-21T01:10:51.133Z,12.62
2022-08-21T01:13:25.516Z,12.57
2022-08-21T01:15:57.377Z,12.44
2022-08-21T01:18:26.352Z,12.43
2022-08-21T01:21:06.332Z,12.33
2022-08-21T01:23:35.709Z,12.23
2022-08-21T01:26:04.261Z,12.14
2022-08-21T01:28:36.713Z,12.10
2022-08-21T01:31:06.896Z,12.11
2022-08-21T01:33:34.948Z,12.21
2022-08-21T01:36:04.884Z,12.15
2022-08-21T01:38:33.995Z,12.14
2022-08-21T01:41:02.101Z,12.08
2022-08-21T01:43:39.114Z,12.03
2022-08-21T01:46:08.032Z,11.90
2022-08-21T01:48:36.244Z,11.84
2022-08-21T01:51:06.857Z,11.84
2022-08-21T01:53:36.736Z,11.94
2022-08-21T01:56:12.614Z,12.08
2022-08-21T01:58:42.018Z,12.03
2022-08-21T02:01:10.458Z,12.05
2022-08-21T02:03:39.126Z,11.92
2022-08-21T02:06:09.748Z,11.87
2022-08-21T02:08:37.767Z,11.85
2022-08-21T02:11:05.983Z,11.80
2022-08-21T02:13:34.029Z,11.82
2022-08-21T02:16:02.022Z,11.77
2022-08-21T02:18:30.648Z,11.94
2022-08-21T02:20:58.837Z,11.86
2022-08-21T02:23:28.434Z,11.86
2022-08-21T02:25:56.668Z,11.82
2022-08-21T02:28:24.705Z,11.73
2022-08-21T02:30:55.103Z,11.67
2022-08-21T02:33:23.152Z,11.54
2022-08-21T02:35:52.918Z,11.46
2022-08-21T02:38:23.937Z,11.53
2022-08-21T02:40:54.070Z,11.45
2022-08-21T02:43:24.565Z,11.58
2022-08-21T02:45:53.590Z,11.50
2022-08-21T02:48:24.067Z,11.46
2022-08-21T02:50:55.565Z,11.55
2022-08-21T02:53:23.657Z,11.56
2022-08-21T02:55:54.337Z,11.59
2022-08-21T02:58:25.286Z,11.71
2022-08-21T03:00:53.995Z,11.74
2022-08-21T03:03:23.220Z,11.73
2022-08-21T03:05:51.278Z,11.75
2022-08-21T03:08:20.081Z,11.72
2022-08-21T03:10:50.414Z,11.80
2022-08-21T03:13:21.385Z,11.81
2022-08-21T03:15:50.458Z,11.82
2022-08-21T03:18:18.945Z,11.85
2022-08-21T03:20:47.926Z,11.67
2022-08-21T03:23:19.129Z,11.83
2022-08-21T03:25:49.306Z,11.87
2022-08-21T03:28:22.031Z,11.92
2022-08-21T03:30:52.576Z,11.77
2022-08-21T03:33:23.393Z,11.95
2022-08-21T03:35:58.819Z,11.97
2022-08-21T03:38:28.362Z,11.95
2022-08-21T03:40:56.402Z,11.97
2022-08-21T03:43:25.875Z,11.87
2022-08-21T03:45:54.085Z,11.85
2022-08-21T03:48:22.495Z,11.74
2022-08-21T03:50:50.686Z,11.76
2022-08-21T03:53:18.868Z,11.82
2022-08-21T03:55:48.514Z,11.83
2022-08-21T03:58:18.081Z,11.82
2022-08-21T04:00:49.209Z,11.80
2022-08-21T04:03:18.274Z,11.69
2022-08-21T04:05:47.173Z,11.57
2022-08-21T04:08:18.295Z,11.51
2022-08-21T04:10:48.618Z,11.53
2022-08-21T04:13:16.694Z,11.44
2022-08-21T04:15:45.118Z,11.43
2022-08-21T04:18:14.488Z,11.35
2022-08-21T04:20:45.402Z,11.43
2022-08-21T04:23:23.927Z,11.61
2022-08-21T04:25:53.910Z,11.62
2022-08-21T04:28:23.394Z,11.69
2022-08-21T04:30:52.976Z,11.80
2022-08-21T04:33:23.682Z,11.88
2022-08-21T04:35:52.449Z,11.98
2022-08-21T04:38:21.210Z,11.98
2022-08-21T04:40:50.277Z,12.05
2022-08-21T04:43:19.124Z,12.06
2022-08-21T04:45:50.132Z,12.06
2022-08-21T04:48:20.854Z,12.04
2022-08-21T04:50:54.274Z,11.99
2022-08-21T04:53:26.467Z,11.96
2022-08-21T04:55:56.726Z,11.90
2022-08-21T04:58:28.337Z,11.85
2022-08-21T05:00:59.937Z,11.88
2022-08-21T05:03:28.214Z,11.93
2022-08-21T05:05:57.849Z,11.93
2022-08-21T05:08:29.552Z,11.98
2022-08-21T05:11:00.471Z,12.01
2022-08-21T05:13:29.331Z,12.03
2022-08-21T05:15:57.762Z,12.01
2022-08-21T05:18:26.016Z,12.04
2022-08-21T05:20:54.073Z,12.07
2022-08-21T05:23:23.441Z,12.11
2022-08-21T05:25:51.437Z,12.16
2022-08-21T05:28:20.025Z,12.28
2022-08-21T05:30:48.238Z,12.34
2022-08-21T05:33:16.257Z,12.42
2022-08-21T05:35:44.312Z,12.48
2022-08-21T05:38:16.684Z,12.56
2022-08-21T05:40:48.359Z,12.63
2022-08-21T05:43:17.426Z,12.70
2022-08-21T05:45:45.569Z,12.76
2022-08-21T05:48:16.115Z,12.85
2022-08-21T05:50:45.231Z,12.95
2022-08-21T05:53:15.801Z,12.90
2022-08-21T05:55:46.258Z,13.10
2022-08-21T05:58:18.479Z,13.18
2022-08-21T06:00:48.168Z,13.30
2022-08-21T06:03:19.273Z,13.37
2022-08-21T06:05:47.625Z,13.47
2022-08-21T06:08:17.135Z,13.55
2022-08-21T06:10:45.633Z,13.65
2022-08-21T06:13:14.014Z,13.72
2022-08-21T06:15:43.863Z,13.80
2022-08-21T06:18:12.381Z,13.87
2022-08-21T06:20:40.787Z,13.90
2022-08-21T06:23:09.177Z,13.99
2022-08-21T06:25:37.774Z,14.02
2022-08-21T06:28:07.229Z,14.09
2022-08-21T06:30:37.040Z,14.13
2022-08-21T06:33:07.004Z,14.18
2022-08-21T06:35:35.961Z,14.23
2022-08-21T06:38:05.293Z,14.30
2022-08-21T06:40:34.792Z,14.39
2022-08-21T06:43:09.823Z,14.48
2022-08-21T06:45:38.152Z,14.56
2022-08-21T06:48:08.819Z,14.67
2022-08-21T06:50:37.155Z,14.76
2022-08-21T06:53:06.758Z,14.85
2022-08-21T06:55:35.187Z,14.93
2022-08-21T06:58:03.238Z,15.05
2022-08-21T07:00:31.410Z,15.20
2022-08-21T07:03:00.105Z,15.27
2022-08-21T07:05:31.616Z,15.39
2022-08-21T07:08:00.246Z,15.44
2022-08-21T07:10:29.191Z,15.68
2022-08-21T07:13:00.601Z,15.86
2022-08-21T07:15:31.106Z,15.92
2022-08-21T07:18:00.905Z,16.04
2022-08-21T07:20:31.344Z,16.19
2022-08-21T07:23:03.019Z,16.25
2022-08-21T07:25:31.428Z,16.30
2022-08-21T07:27:59.637Z,16.29
2022-08-21T07:30:28.486Z,16.51
2022-08-21T07:32:57.789Z,16.43
2022-08-21T07:35:28.943Z,16.61
2022-08-21T07:37:58.325Z,16.62
2022-08-21T07:40:26.425Z,16.71
2022-08-21T07:42:55.541Z,16.80
2022-08-21T07:45:25.512Z,16.93
2022-08-21T07:47:57.258Z,17.13
2022-08-21T07:50:26.263Z,17.18
2022-08-21T07:52:54.883Z,17.29
2022-08-21T07:55:25.224Z,17.31
2022-08-21T07:57:53.358Z,17.56
2022-08-21T08:00:25.302Z,17.73
2022-08-21T08:02:55.126Z,17.78
2022-08-21T08:05:25.305Z,17.81
2022-08-21T08:07:53.874Z,17.98
2022-08-21T08:10:24.972Z,18.11
2022-08-21T08:12:55.555Z,18.21
2022-08-21T08:15:26.697Z,18.36
2022-08-21T08:17:55.771Z,18.45
2022-08-21T08:20:26.051Z,18.44
2022-08-21T08:22:54.885Z,18.68
2022-08-21T08:25:25.598Z,18.69
2022-08-21T08:27:53.659Z,18.85
2022-08-21T08:30:23.472Z,18.95
2022-08-21T08:32:51.942Z,18.96
2022-08-21T08:35:22.352Z,18.94
2022-08-21T08:37:53.673Z,19.01
2022-08-21T08:40:31.085Z,19.00
2022-08-21T08:42:59.334Z,19.02
2022-08-21T08:45:28.308Z,19.19
2022-08-21T08:48:02.848Z,19.29
2022-08-21T08:50:42.499Z,19.35
2022-08-21T08:53:16.958Z,19.39
2022-08-21T08:55:47.205Z,19.50
2022-08-21T08:58:21.111Z,19.51
2022-08-21T09:00:52.217Z,19.51
2022-08-21T09:03:21.258Z,19.50
2022-08-21T09:05:57.217Z,19.58
2022-08-21T09:08:50.234Z,19.53
2022-08-21T09:11:31.083Z,19.53
2022-08-21T09:14:18.449Z,19.65
2022-08-21T09:16:56.231Z,19.67
2022-08-21T09:19:55.086Z,19.67
2022-08-21T09:22:36.902Z,19.72
2022-08-21T09:25:13.541Z,19.72
2022-08-21T09:27:43.144Z,19.80
2022-08-21T09:30:12.058Z,19.73
2022-08-21T09:32:41.458Z,19.87
2022-08-21T09:35:13.197Z,19.93
2022-08-21T09:37:51.049Z,19.97
2022-08-21T09:40:38.129Z,19.91
2022-08-21T09:43:18.063Z,20.01
2022-08-21T09:45:47.501Z,20.09
2022-08-21T09:48:19.959Z,20.17
2022-08-21T09:50:49.999Z,20.22
2022-08-21T09:53:21.854Z,20.24
2022-08-21T09:56:11.590Z,20.39
2022-08-21T09:58:44.343Z,20.57
2022-08-21T10:01:16.912Z,20.66
2022-08-21T10:03:45.123Z,20.58
2022-08-21T10:06:25.030Z,20.49
2022-08-21T10:08:53.381Z,20.56
2022-08-21T10:11:28.801Z,20.63
2022-08-21T10:14:09.453Z,20.79
2022-08-21T10:16:46.295Z,20.81
2022-08-21T10:19:23.817Z,20.74
2022-08-21T10:22:02.968Z,20.61
2022-08-21T10:24:35.410Z,20.51
2022-08-21T10:27:17.846Z,20.58
2022-08-21T10:29:53.944Z,20.68
2022-08-21T10:32:38.601Z,20.68
2022-08-21T10:35:14.599Z,20.75
2022-08-21T10:37:57.858Z,20.68
2022-08-21T10:40:31.761Z,20.76
2022-08-21T10:43:10.410Z,20.90
2022-08-21T10:45:54.525Z,21.02
2022-08-21T10:48:30.848Z,21.05
2022-08-21T10:51:08.258Z,21.26
2022-08-21T10:53:49.252Z,21.31
2022-08-21T10:56:20.422Z,21.38
2022-08-21T10:59:01.988Z,21.31
2022-08-21T11:01:41.709Z,21.04
2022-08-21T11:04:18.177Z,21.05
2022-08-21T11:06:50.827Z,21.12
2022-08-21T11:09:24.020Z,21.15
2022-08-21T11:11:59.323Z,21.10
2022-08-21T11:14:50.008Z,21.05
2022-08-21T11:17:25.410Z,21.04
2022-08-21T11:20:01.585Z,21.28
2022-08-21T11:22:37.229Z,21.56
2022-08-21T11:25:12.877Z,21.71
2022-08-21T11:27:45.622Z,21.92
2022-08-21T11:30:15.599Z,21.79
2022-08-21T11:33:14.377Z,22.10
2022-08-21T11:35:52.765Z,22.17
2022-08-21T11:38:33.425Z,22.19
2022-08-21T11:41:15.181Z,22.15
2022-08-21T11:43:47.136Z,22.29
2022-08-21T11:46:33.189Z,22.48
2022-08-21T11:49:23.654Z,22.36
2022-08-21T11:52:10.050Z,22.33
2022-08-21T11:54:44.503Z,22.00
2022-08-21T11:57:20.426Z,21.78
2022-08-21T11:59:54.078Z,21.75
2022-08-21T12:02:26.075Z,21.87
2022-08-21T12:05:08.476Z,21.93
2022-08-21T12:07:39.836Z,21.94
2022-08-21T12:10:11.426Z,21.98
2022-08-21T12:12:41.938Z,21.90
2022-08-21T12:15:26.296Z,21.81
2022-08-21T12:17:58.014Z,22.22
2022-08-21T12:20:40.117Z,22.63
2022-08-21T12:23:28.834Z,22.85
2022-08-21T12:26:21.746Z,23.18
2022-08-21T12:28:50.029Z,23.56
2022-08-21T12:31:24.279Z,23.89
2022-08-21T12:33:58.158Z,23.51
2022-08-21T12:36:40.329Z,23.42
2022-08-21T12:39:15.887Z,23.29
2022-08-21T12:41:49.122Z,22.95
2022-08-21T12:44:23.512Z,22.74
2022-08-21T12:46:59.308Z,22.63
2022-08-21T12:49:33.033Z,22.81
2022-08-21T12:52:16.627Z,22.80
2022-08-21T12:54:46.818Z,22.74
2022-08-21T12:57:21.560Z,23.91
2022-08-21T12:59:55.439Z,25.55
2022-08-21T13:02:28.340Z,27.28
2022-08-21T13:04:57.774Z,27.53
2022-08-21T13:07:32.130Z,27.33
2022-08-21T13:10:05.477Z,26.94
2022-08-21T13:12:34.852Z,26.98
2022-08-21T13:15:09.068Z,25.85
2022-08-21T13:17:41.796Z,27.37
2022-08-21T13:20:20.626Z,28.81
2022-08-21T13:22:50.092Z,29.61
2022-08-21T13:25:21.985Z,30.61
2022-08-21T13:28:01.618Z,30.91
2022-08-21T13:30:31.461Z,31.39
2022-08-21T13:33:02.188Z,31.83
2022-08-21T13:35:33.748Z,31.75
2022-08-21T13:38:03.764Z,31.86
2022-08-21T13:40:34.779Z,30.69
2022-08-21T13:43:03.390Z,31.48
2022-08-21T13:45:34.728Z,30.76
2022-08-21T13:48:06.701Z,29.22
2022-08-21T13:50:38.425Z,27.85
2022-08-21T13:53:21.800Z,28.03
2022-08-21T13:55:50.606Z,29.28
2022-08-21T13:58:27.432Z,29.92
2022-08-21T14:00:57.170Z,30.85
2022-08-21T14:03:33.296Z,31.67
2022-08-21T14:06:01.613Z,30.89
2022-08-21T14:08:35.207Z,31.20
2022-08-21T14:11:05.765Z,31.25
2022-08-21T14:13:41.902Z,32.54
2022-08-21T14:16:19.932Z,32.98
2022-08-21T14:18:54.406Z,34.12
2022-08-21T14:21:30.670Z,33.35
2022-08-21T14:24:05.191Z,34.67
2022-08-21T14:26:34.681Z,32.36
2022-08-21T14:29:09.630Z,31.86
2022-08-21T14:31:39.595Z,32.47
2022-08-21T14:34:19.638Z,29.53
2022-08-21T14:36:49.613Z,28.40
2022-08-21T14:39:19.341Z,27.09
2022-08-21T14:41:49.577Z,25.70
2022-08-21T14:44:19.102Z,25.07
2022-08-21T14:46:56.648Z,24.67
2022-08-21T14:49:29.700Z,24.50
2022-08-21T14:51:59.255Z,24.16
2022-08-21T14:54:32.081Z,25.10
2022-08-21T14:57:02.498Z,27.92
2022-08-21T14:59:31.350Z,30.13
2022-08-21T15:01:59.426Z,32.10
2022-08-21T15:04:27.543Z,33.86
2022-08-21T15:06:55.574Z,34.32
2022-08-21T15:09:24.730Z,35.42
2022-08-21T15:11:57.175Z,35.30
2022-08-21T15:14:28.078Z,34.79
2022-08-21T15:16:56.244Z,34.49
2022-08-21T15:19:24.430Z,34.68
2022-08-21T15:21:52.702Z,34.38
2022-08-21T15:24:20.768Z,34.97
2022-08-21T15:26:49.083Z,34.57
2022-08-21T15:29:22.849Z,34.25
2022-08-21T15:31:56.041Z,34.06
2022-08-21T15:34:27.242Z,33.02
2022-08-21T15:36:57.240Z,33.89
2022-08-21T15:39:30.345Z,33.34
2022-08-21T15:42:02.826Z,32.92
2022-08-21T15:44:41.636Z,34.29
2022-08-21T15:47:14.285Z,34.27
2022-08-21T15:49:45.750Z,34.18
2022-08-21T15:52:14.117Z,34.91
2022-08-21T15:54:42.302Z,35.45
2022-08-21T15:57:11.488Z,34.44
2022-08-21T15:59:43.471Z,32.94
2022-08-21T16:02:15.848Z,32.47
2022-08-21T16:04:44.134Z,33.23
2022-08-21T16:07:12.324Z,33.88
2022-08-21T16:09:40.510Z,32.55
2022-08-21T16:12:11.412Z,34.13
2022-08-21T16:14:41.317Z,33.87
2022-08-21T16:17:09.942Z,32.41
2022-08-21T16:19:39.587Z,31.85
2022-08-21T16:22:07.682Z,31.86
2022-08-21T16:24:36.507Z,31.27
2022-08-21T16:27:07.911Z,31.31
2022-08-21T16:29:37.902Z,31.44
2022-08-21T16:32:09.986Z,31.75
2022-08-21T16:34:38.334Z,32.49
2022-08-21T16:37:06.374Z,31.99
2022-08-21T16:39:34.404Z,31.39
2022-08-21T16:42:02.466Z,30.61
2022-08-21T16:44:31.226Z,29.29
2022-08-21T16:46:59.395Z,29.71
2022-08-21T16:49:29.360Z,29.17
2022-08-21T16:51:57.382Z,29.14
2022-08-21T16:54:25.476Z,28.50
2022-08-21T16:56:54.126Z,28.44
2022-08-21T16:59:22.548Z,28.01
2022-08-21T17:01:51.428Z,27.68
2022-08-21T17:04:20.756Z,27.83
2022-08-21T17:06:50.289Z,27.19
2022-08-21T17:09:18.316Z,27.02
2022-08-21T17:11:49.684Z,26.63
2022-08-21T17:14:20.714Z,26.54
2022-08-21T17:16:51.935Z,26.46
2022-08-21T17:19:20.942Z,25.77
2022-08-21T17:21:50.394Z,25.19
2022-08-21T17:24:18.418Z,24.42
2022-08-21T17:26:47.255Z,24.05
2022-08-21T17:29:16.437Z,24.31
2022-08-21T17:31:47.128Z,24.34
2022-08-21T17:34:15.834Z,23.92
2022-08-21T17:36:43.894Z,23.75
2022-08-21T17:39:21.810Z,23.61
2022-08-21T17:41:57.858Z,23.56
2022-08-21T17:44:26.934Z,23.32
2022-08-21T17:46:55.186Z,23.27
2022-08-21T17:49:23.372Z,23.12
2022-08-21T17:51:51.610Z,22.99
2022-08-21T17:54:21.252Z,22.79
2022-08-21T17:56:49.536Z,22.64
2022-08-21T17:59:17.644Z,22.53
2022-08-21T18:01:47.261Z,22.49
2022-08-21T18:04:16.764Z,22.36
2022-08-21T18:06:46.133Z,22.19
2022-08-21T18:09:14.597Z,22.14
2022-08-21T18:11:44.823Z,22.11
2022-08-21T18:14:13.707Z,22.12
2022-08-21T18:16:42.114Z,21.98
2022-08-21T18:19:15.869Z,21.93
2022-08-21T18:21:44.181Z,21.82
2022-08-21T18:24:12.216Z,21.74
2022-08-21T18:26:41.924Z,21.58
2022-08-21T18:29:14.914Z,21.57
2022-08-21T18:31:45.970Z,21.51
2022-08-21T18:34:23.774Z,21.41
2022-08-21T18:36:52.706Z,21.40
2022-08-21T18:39:37.768Z,21.26
2022-08-21T18:42:10.210Z,21.12
2022-08-21T18:44:41.394Z,20.99
2022-08-21T18:47:14.915Z,21.01
2022-08-21T18:49:43.172Z,20.93
2022-08-21T18:54:59.397Z,20.82
2022-08-21T18:57:34.559Z,20.78
2022-08-21T19:00:09.716Z,20.52
2022-08-21T19:02:38.681Z,20.57
2022-08-21T19:05:14.821Z,20.40
2022-08-21T19:07:42.921Z,20.54
2022-08-21T19:10:29.261Z,20.48
2022-08-21T19:12:59.389Z,20.44
2022-08-21T19:15:30.078Z,20.42
2022-08-21T19:17:59.533Z,20.36
2022-08-21T19:20:30.357Z,20.30
2022-08-21T19:22:58.611Z,20.28
2022-08-21T19:28:19.377Z,20.14
2022-08-21T19:30:56.267Z,20.09
2022-08-21T19:33:29.449Z,20.02
2022-08-21T19:35:57.560Z,19.94
2022-08-21T19:38:26.269Z,19.97
2022-08-21T19:40:55.216Z,19.90
2022-08-21T19:43:23.953Z,19.87
2022-08-21T19:45:56.369Z,19.86
2022-08-21T19:48:24.771Z,19.77
2022-08-21T19:50:54.053Z,19.77
2022-08-21T19:53:22.191Z,19.67
2022-08-21T19:55:50.205Z,19.58
2022-08-21T19:58:29.384Z,19.38
2022-08-21T20:00:58.909Z,19.50
2022-08-21T20:03:27.103Z,19.36
2022-08-21T20:05:55.214Z,19.23
2022-08-21T20:08:28.143Z,19.10
2022-08-21T20:10:59.803Z,19.02
2022-08-21T20:13:34.084Z,18.84
2022-08-21T20:16:08.189Z,18.82
2022-08-21T20:18:40.537Z,18.76
2022-08-21T20:21:10.838Z,18.71
2022-08-21T20:23:48.776Z,18.68
2022-08-21T20:26:18.423Z,18.61
2022-08-21T20:28:50.577Z,18.50
2022-08-21T20:31:21.629Z,18.44
2022-08-21T20:33:51.210Z,18.40
2022-08-21T20:36:19.249Z,18.30
2022-08-21T20:38:48.203Z,18.19
2022-08-21T20:41:21.060Z,18.18
2022-08-21T20:43:59.964Z,18.15
2022-08-21T20:46:32.181Z,18.12
2022-08-21T20:49:01.938Z,18.05
2022-08-21T20:51:35.738Z,18.10
2022-08-21T20:54:15.752Z,18.13
2022-08-21T20:56:50.641Z,18.13
2022-08-21T20:59:40.390Z,18.04
2022-08-21T21:02:20.524Z,18.08
2022-08-21T21:04:53.466Z,18.08
2022-08-21T21:07:27.128Z,18.02
2022-08-21T21:09:58.217Z,17.99
2022-08-21T21:12:32.481Z,17.97
2022-08-21T21:15:05.945Z,17.95
2022-08-21T21:17:41.280Z,17.91
2022-08-21T21:20:13.397Z,17.94
2022-08-21T21:22:46.502Z,17.86
2022-08-21T21:25:19.726Z,17.75
2022-08-21T21:27:54.484Z,17.59
2022-08-21T21:30:25.974Z,17.48
2022-08-21T21:32:55.540Z,17.41
2022-08-21T21:35:33.187Z,17.39
2022-08-21T21:38:17.825Z,17.39
2022-08-21T21:40:57.235Z,17.41
2022-08-21T21:43:40.505Z,17.44
2022-08-21T21:46:24.640Z,17.43
2022-08-21T21:49:08.032Z,17.29
2022-08-21T21:52:02.407Z,17.10
2022-08-21T21:55:04.626Z,16.96
2022-08-21T21:57:49.524Z,16.97
2022-08-21T22:00:26.503Z,16.93
2022-08-21T22:03:07.938Z,16.94
2022-08-21T22:05:56.216Z,16.82
2022-08-21T22:08:40.075Z,16.79
2022-08-21T22:14:18.717Z,16.83
2022-08-21T22:16:53.860Z,16.86
2022-08-21T22:19:26.929Z,16.86
2022-08-21T22:22:00.844Z,16.80
2022-08-21T22:24:33.753Z,16.73
2022-08-21T22:27:05.528Z,16.73
2022-08-21T22:29:45.116Z,16.75
2022-08-21T22:32:13.914Z,16.72
2022-08-21T22:34:42.132Z,16.74
2022-08-21T22:37:12.868Z,16.79
2022-08-21T22:39:44.501Z,16.82
2022-08-21T22:42:20.942Z,16.84
2022-08-21T22:44:51.855Z,16.84
2022-08-21T22:47:22.448Z,16.87
2022-08-21T22:49:54.084Z,16.89
2022-08-21T22:52:26.913Z,16.92
2022-08-21T22:55:00.076Z,16.94
2022-08-21T22:57:31.302Z,16.93
2022-08-21T23:00:02.689Z,16.92
2022-08-21T23:02:39.198Z,16.87
2022-08-21T23:05:18.425Z,16.99
2022-08-21T23:07:50.091Z,16.90
2022-08-21T23:10:26.766Z,16.81
2022-08-21T23:13:03.401Z,16.73
2022-08-21T23:15:46.696Z,16.57
2022-08-21T23:18:23.033Z,16.49
2022-08-21T23:20:59.789Z,16.47
2022-08-21T23:23:31.540Z,16.44
2022-08-21T23:26:18.341Z,16.49
2022-08-21T23:29:08.195Z,16.53
2022-08-21T23:31:44.304Z,16.64
2022-08-21T23:34:25.511Z,16.70
2022-08-21T23:37:48.400Z,16.84
2022-08-21T23:40:38.754Z,16.97
2022-08-21T23:43:33.239Z,17.04
2022-08-21T23:46:20.318Z,17.14
2022-08-21T23:49:17.750Z,17.17
2022-08-21T23:51:56.824Z,17.12
2022-08-21T23:54:30.850Z,17.07
2022-08-21T23:57:08.593Z,16.99
2022-08-21T23:59:52.182Z,16.99
